createdAt,value
2018-10-18T00:02:37.309Z,100.00
2018-10-18T00:05:41.596Z,100.00
2018-10-18T00:08:45.874Z,100.00
2018-10-18T00:11:50.163Z,100.00
2018-10-18T00:14:54.547Z,100.00
2018-10-18T00:17:58.865Z,100.00
2018-10-18T00:21:03.173Z,100.00
2018-10-18T00:24:07.467Z,100.00
2018-10-18T00:27:11.738Z,100.00
2018-10-18T00:30:16.348Z,100.00
2018-10-18T00:33:20.528Z,100.00
2018-10-18T00:36:24.899Z,100.00
2018-10-18T00:39:29.178Z,100.00
2018-10-18T00:42:33.513Z,100.00
2018-10-18T00:45:37.855Z,100.00
2018-10-18T00:48:42.201Z,100.00
2018-10-18T00:51:46.509Z,100.00
2018-10-18T00:54:50.830Z,100.00
2018-10-18T00:57:55.174Z,100.00
2018-10-18T01:00:59.504Z,100.00
2018-10-18T01:04:03.801Z,100.00
2018-10-18T01:07:08.461Z,100.00
2018-10-18T01:10:12.827Z,100.00
2018-10-18T01:13:17.155Z,100.00
2018-10-18T01:16:21.472Z,100.00
2018-10-18T01:19:25.853Z,100.00
2018-10-18T01:22:30.172Z,100.00
2018-10-18T01:25:34.512Z,100.00
2018-10-18T01:28:39.076Z,100.00
2018-10-18T01:31:43.391Z,100.00
2018-10-18T01:34:47.722Z,100.00
2018-10-18T01:37:52.372Z,100.00
2018-10-18T01:40:56.712Z,100.00
2018-10-18T01:44:01.124Z,100.00
2018-10-18T01:47:05.451Z,100.00
2018-10-18T01:50:10.302Z,100.00
2018-10-18T01:53:14.548Z,100.00
2018-10-18T01:56:18.849Z,100.00
2018-10-18T01:59:23.277Z,100.00
2018-10-18T02:02:27.600Z,100.00
2018-10-18T02:05:32.273Z,100.00
2018-10-18T02:08:36.621Z,100.00
2018-10-18T02:11:41.409Z,100.00
2018-10-18T02:14:45.732Z,100.00
2018-10-18T02:17:50.176Z,100.00
2018-10-18T02:20:54.456Z,100.00
2018-10-18T02:23:58.877Z,100.00
2018-10-18T02:27:03.131Z,100.00
2018-10-18T02:30:07.539Z,100.00
2018-10-18T02:33:11.796Z,100.00
2018-10-18T02:36:16.277Z,100.00
2018-10-18T02:39:20.491Z,100.00
2018-10-18T02:42:24.820Z,100.00
2018-10-18T02:45:29.156Z,100.00
2018-10-18T02:48:33.483Z,100.00
2018-10-18T02:51:37.780Z,100.00
2018-10-18T02:54:42.336Z,100.00
2018-10-18T02:57:47.089Z,100.00
2018-10-18T03:00:51.413Z,100.00
2018-10-18T03:03:55.767Z,100.00
2018-10-18T03:07:00.066Z,100.00
2018-10-18T03:10:05.305Z,100.00
2018-10-18T03:13:10.020Z,100.00
2018-10-18T03:16:14.356Z,100.00
2018-10-18T03:19:18.608Z,100.00
2018-10-18T03:22:22.971Z,100.00
2018-10-18T03:28:59.300Z,100.00
2018-10-18T03:32:03.684Z,100.00
2018-10-18T03:35:08.887Z,100.00
2018-10-18T03:38:13.176Z,100.00
2018-10-18T03:41:17.486Z,100.00
2018-10-18T03:44:21.775Z,100.00
2018-10-18T03:47:26.101Z,100.00
2018-10-18T03:50:30.503Z,100.00
2018-10-18T03:53:34.840Z,100.00
2018-10-18T03:56:39.113Z,100.00
2018-10-18T03:59:43.530Z,100.00
2018-10-18T04:02:47.726Z,100.00
2018-10-18T04:05:55.041Z,100.00
2018-10-18T04:08:59.376Z,100.00
2018-10-18T04:12:03.812Z,100.00
2018-10-18T04:15:08.459Z,100.00
2018-10-18T04:18:13.211Z,100.00
2018-10-18T04:21:17.524Z,100.00
2018-10-18T04:24:21.860Z,100.00
2018-10-18T04:27:26.145Z,100.00
2018-10-18T04:30:30.446Z,100.00
2018-10-18T04:33:34.720Z,100.00
2018-10-18T04:36:39.131Z,100.00
2018-10-18T04:39:43.459Z,100.00
2018-10-18T04:42:47.937Z,100.00
2018-10-18T04:45:52.225Z,100.00
2018-10-18T04:48:56.623Z,100.00
2018-10-18T04:52:00.830Z,100.00
2018-10-18T04:55:05.548Z,100.00
2018-10-18T04:58:09.821Z,100.00
2018-10-18T05:01:14.371Z,100.00
2018-10-18T05:04:18.585Z,100.00
2018-10-18T05:07:26.140Z,100.00
2018-10-18T05:10:31.625Z,100.00
2018-10-18T05:13:35.888Z,100.00
2018-10-18T05:16:40.167Z,100.00
2018-10-18T05:19:44.455Z,100.00
2018-10-18T05:22:48.737Z,100.00
2018-10-18T05:25:53.028Z,100.00
2018-10-18T05:28:57.356Z,100.00
2018-10-18T05:32:01.612Z,100.00
2018-10-18T05:35:06.149Z,100.00
2018-10-18T05:38:10.424Z,100.00
2018-10-18T05:41:14.708Z,100.00
2018-10-18T05:44:18.993Z,100.00
2018-10-18T05:47:23.367Z,100.00
2018-10-18T05:50:27.557Z,100.00
2018-10-18T05:53:31.940Z,100.00
2018-10-18T05:56:36.160Z,100.00
2018-10-18T05:59:40.452Z,100.00
2018-10-18T06:02:44.844Z,100.00
2018-10-18T06:05:49.127Z,100.00
2018-10-18T06:08:53.494Z,100.00
2018-10-18T06:11:57.773Z,100.00
2018-10-18T06:15:02.060Z,100.00
2018-10-18T06:18:06.751Z,100.00
2018-10-18T06:21:11.047Z,100.00
2018-10-18T06:24:15.407Z,100.00
2018-10-18T06:27:19.752Z,100.00
2018-10-18T06:30:24.048Z,100.00
2018-10-18T06:33:28.337Z,100.00
2018-10-18T06:36:32.640Z,100.00
2018-10-18T06:39:37.000Z,100.00
2018-10-18T06:42:41.732Z,100.00
2018-10-18T06:45:46.012Z,100.00
2018-10-18T06:48:50.318Z,100.00
2018-10-18T06:51:54.596Z,100.00
2018-10-18T06:54:58.913Z,98.21
2018-10-18T06:58:03.171Z,94.81
2018-10-18T07:01:07.438Z,96.62
2018-10-18T07:04:11.717Z,98.91
2018-10-18T07:07:16.037Z,100.00
2018-10-18T07:10:20.327Z,100.00
2018-10-18T07:13:24.666Z,100.00
2018-10-18T07:16:28.947Z,100.00
2018-10-18T07:19:33.249Z,100.00
2018-10-18T07:22:38.319Z,100.00
2018-10-18T07:25:42.588Z,100.00
2018-10-18T07:28:46.895Z,100.00
2018-10-18T07:31:51.170Z,100.00
2018-10-18T07:34:56.045Z,100.00
2018-10-18T07:38:00.420Z,100.00
2018-10-18T07:41:05.012Z,100.00
2018-10-18T07:44:09.603Z,100.00
2018-10-18T07:47:14.065Z,99.10
2018-10-18T07:50:18.421Z,98.34
2018-10-18T07:53:22.745Z,96.71
2018-10-18T07:56:26.958Z,96.14
2018-10-18T07:59:31.337Z,96.17
2018-10-18T08:02:35.731Z,97.20
2018-10-18T08:05:40.116Z,96.99
2018-10-18T08:08:44.666Z,97.42
2018-10-18T08:11:48.949Z,96.59
2018-10-18T08:14:53.331Z,97.50
2018-10-18T08:17:57.609Z,96.84
2018-10-18T08:21:01.924Z,94.41
2018-10-18T08:24:06.249Z,93.63
2018-10-18T08:27:10.595Z,93.12
2018-10-18T08:30:15.048Z,93.49
2018-10-18T08:33:19.546Z,93.67
2018-10-18T08:36:23.853Z,92.74
2018-10-18T08:39:28.184Z,92.69
2018-10-18T08:42:32.547Z,91.78
2018-10-18T08:45:36.961Z,91.62
2018-10-18T08:48:41.368Z,91.27
2018-10-18T08:51:45.714Z,91.42
2018-10-18T08:54:50.104Z,91.60
2018-10-18T08:57:54.428Z,91.13
2018-10-18T09:00:58.804Z,90.89
2018-10-18T09:04:03.159Z,88.52
2018-10-18T09:07:07.499Z,87.40
2018-10-18T09:10:11.783Z,88.82
2018-10-18T09:13:16.197Z,87.62
2018-10-18T09:16:20.456Z,86.59
2018-10-18T09:19:24.876Z,85.28
2018-10-18T09:22:29.281Z,86.72
2018-10-18T09:25:33.586Z,86.34
2018-10-18T09:28:37.909Z,86.45
2018-10-18T09:31:42.222Z,85.89
2018-10-18T09:34:46.542Z,83.14
2018-10-18T09:37:50.859Z,82.04
2018-10-18T09:40:55.158Z,81.45
2018-10-18T09:44:03.244Z,82.57
2018-10-18T09:47:07.553Z,81.08
2018-10-18T09:50:12.809Z,82.09
2018-10-18T09:53:17.135Z,81.85
2018-10-18T09:56:21.504Z,80.50
2018-10-18T09:59:25.809Z,79.81
2018-10-18T10:03:35.269Z,78.62
2018-10-18T10:06:39.588Z,77.88
2018-10-18T10:09:43.952Z,76.45
2018-10-18T10:12:48.319Z,74.19
2018-10-18T10:16:16.227Z,73.19
2018-10-18T10:19:20.673Z,73.18
2018-10-18T10:22:25.053Z,73.15
2018-10-18T10:25:29.544Z,71.66
2018-10-18T10:28:33.844Z,70.37
2018-10-18T10:31:38.171Z,69.38
2018-10-18T10:34:42.496Z,69.65
2018-10-18T10:37:46.823Z,67.86
2018-10-18T10:40:51.132Z,67.65
2018-10-18T10:43:55.463Z,69.27
2018-10-18T10:46:59.994Z,69.91
2018-10-18T10:50:04.466Z,70.46
2018-10-18T10:53:08.720Z,70.53
2018-10-18T10:56:13.091Z,72.00
2018-10-18T10:59:18.538Z,69.97
2018-10-18T11:02:22.820Z,71.59
2018-10-18T11:05:27.245Z,70.74
2018-10-18T11:08:31.630Z,70.34
2018-10-18T11:11:36.015Z,68.00
2018-10-18T11:14:40.407Z,69.62
2018-10-18T11:17:44.708Z,69.96
2018-10-18T11:20:49.045Z,68.97
2018-10-18T11:23:53.357Z,70.29
2018-10-18T11:26:57.725Z,70.52
2018-10-18T11:30:02.040Z,71.73
2018-10-18T11:33:06.593Z,72.59
2018-10-18T11:36:11.147Z,70.24
2018-10-18T11:39:15.384Z,71.16
2018-10-18T11:42:19.979Z,72.47
2018-10-18T11:45:24.167Z,71.52
2018-10-18T11:48:30.132Z,72.87
2018-10-18T11:51:34.488Z,72.35
2018-10-18T11:54:38.787Z,70.61
2018-10-18T11:57:43.110Z,70.23
2018-10-18T12:00:47.418Z,71.93
2018-10-18T12:03:58.344Z,71.00
2018-10-18T12:07:02.659Z,71.50
2018-10-18T12:10:08.448Z,70.60
2018-10-18T12:13:12.778Z,71.68
2018-10-18T12:16:17.081Z,72.73
2018-10-18T12:19:21.421Z,72.90
2018-10-18T12:22:25.756Z,74.24
2018-10-18T12:25:30.267Z,72.11
2018-10-18T12:28:34.617Z,74.57
2018-10-18T12:31:39.136Z,74.96
2018-10-18T12:34:43.512Z,74.41
2018-10-18T12:37:47.977Z,74.57
2018-10-18T12:40:52.451Z,73.46
2018-10-18T12:43:56.790Z,71.94
2018-10-18T12:47:01.189Z,71.27
2018-10-18T12:50:06.454Z,71.85
2018-10-18T12:53:10.653Z,70.09
2018-10-18T12:56:15.057Z,70.01
2018-10-18T12:59:19.290Z,68.57
2018-10-18T13:02:23.599Z,69.41
2018-10-18T13:05:27.896Z,69.25
2018-10-18T13:08:32.316Z,70.49
2018-10-18T13:11:36.605Z,71.50
2018-10-18T13:14:40.909Z,71.45
2018-10-18T13:17:45.241Z,70.75
2018-10-18T13:20:49.710Z,72.05
2018-10-18T13:23:53.999Z,70.96
2018-10-18T13:26:58.277Z,70.68
2018-10-18T13:30:02.619Z,71.91
2018-10-18T13:33:06.944Z,71.63
2018-10-18T13:36:11.325Z,69.99
2018-10-18T13:39:16.242Z,67.47
2018-10-18T13:42:20.911Z,67.06
2018-10-18T13:45:25.630Z,69.14
2018-10-18T13:48:30.295Z,67.68
2018-10-18T13:51:34.656Z,68.09
2018-10-18T13:54:39.437Z,67.06
2018-10-18T13:57:43.995Z,64.58
2018-10-18T14:00:49.736Z,66.07
2018-10-18T14:04:03.225Z,67.39
2018-10-18T14:07:07.672Z,66.57
2018-10-18T14:10:12.103Z,66.06
2018-10-18T14:13:16.510Z,66.16
2018-10-18T14:16:20.934Z,65.93
2018-10-18T14:19:25.506Z,67.89
2018-10-18T14:22:29.819Z,68.36
2018-10-18T14:25:34.163Z,68.18
2018-10-18T14:28:38.496Z,68.70
2018-10-18T14:31:42.920Z,68.95
2018-10-18T14:34:47.310Z,68.85
2018-10-18T14:37:51.662Z,68.61
2018-10-18T14:40:56.088Z,67.48
2018-10-18T14:44:00.658Z,68.51
2018-10-18T14:47:05.282Z,67.00
2018-10-18T14:50:12.310Z,68.20
2018-10-18T14:53:16.544Z,68.48
2018-10-18T14:56:20.932Z,67.80
2018-10-18T14:59:25.417Z,69.19
2018-10-18T15:02:29.840Z,69.79
2018-10-18T15:05:34.242Z,69.25
2018-10-18T15:08:38.574Z,67.98
2018-10-18T15:11:43.008Z,68.17
2018-10-18T15:14:47.534Z,69.36
2018-10-18T15:17:51.936Z,70.34
2018-10-18T15:20:56.356Z,70.65
2018-10-18T15:24:00.696Z,71.24
2018-10-18T15:30:43.232Z,72.90
2018-10-18T15:33:47.630Z,72.77
2018-10-18T15:36:51.943Z,74.42
2018-10-18T15:39:56.294Z,75.49
2018-10-18T15:43:00.604Z,76.33
2018-10-18T15:46:05.164Z,76.69
2018-10-18T15:49:09.676Z,77.50
2018-10-18T15:52:14.316Z,79.09
2018-10-18T15:55:18.833Z,79.51
2018-10-18T15:58:23.589Z,80.49
2018-10-18T16:01:27.996Z,81.32
2018-10-18T16:04:32.399Z,83.45
2018-10-18T16:07:36.831Z,84.42
2018-10-18T16:10:41.133Z,85.57
2018-10-18T16:13:45.487Z,86.76
2018-10-18T16:16:49.804Z,87.62
2018-10-18T16:19:54.180Z,88.76
2018-10-18T16:22:58.578Z,89.85
2018-10-18T16:26:02.910Z,90.52
2018-10-18T16:29:07.312Z,92.36
2018-10-18T16:32:11.640Z,93.38
2018-10-18T16:35:16.086Z,94.04
2018-10-18T16:38:20.401Z,95.20
2018-10-18T16:41:25.254Z,96.15
2018-10-18T16:44:29.562Z,96.94
2018-10-18T16:47:33.907Z,97.73
2018-10-18T16:50:38.189Z,98.95
2018-10-18T16:53:42.573Z,99.89
2018-10-18T16:56:47.024Z,99.95
2018-10-18T16:59:51.351Z,100.00
2018-10-18T17:02:55.650Z,100.00
2018-10-18T17:06:00.124Z,100.00
2018-10-18T17:09:06.095Z,100.00
2018-10-18T17:12:10.541Z,100.00
2018-10-18T17:15:14.844Z,100.00
2018-10-18T17:18:19.256Z,100.00
2018-10-18T17:21:23.500Z,100.00
2018-10-18T17:24:27.805Z,100.00
2018-10-18T17:27:32.314Z,100.00
2018-10-18T17:30:36.464Z,100.00
2018-10-18T17:33:40.797Z,100.00
2018-10-18T17:36:45.190Z,100.00
2018-10-18T17:39:49.591Z,100.00
2018-10-18T17:42:53.960Z,100.00
2018-10-18T17:45:58.695Z,100.00
2018-10-18T17:49:03.019Z,100.00
2018-10-18T17:52:07.542Z,100.00
2018-10-18T17:55:12.256Z,100.00
2018-10-18T17:58:17.015Z,100.00
2018-10-18T18:01:21.465Z,100.00
2018-10-18T18:04:25.884Z,100.00
2018-10-18T18:07:30.338Z,100.00
2018-10-18T18:10:34.754Z,100.00
2018-10-18T18:13:39.168Z,100.00
2018-10-18T18:16:43.583Z,100.00
2018-10-18T18:19:47.880Z,100.00
2018-10-18T18:22:52.369Z,100.00
2018-10-18T18:25:56.624Z,100.00
2018-10-18T18:29:00.952Z,100.00
2018-10-18T18:32:05.602Z,100.00
2018-10-18T18:35:10.016Z,100.00
2018-10-18T18:38:14.432Z,100.00
2018-10-18T18:41:18.868Z,100.00
2018-10-18T18:44:23.340Z,100.00
2018-10-18T18:47:27.756Z,100.00
2018-10-18T18:50:32.016Z,100.00
2018-10-18T18:53:36.424Z,100.00
2018-10-18T18:56:40.688Z,100.00
2018-10-18T18:59:45.001Z,100.00
2018-10-18T19:02:49.311Z,100.00
2018-10-18T19:05:53.763Z,100.00
2018-10-18T19:08:58.346Z,100.00
2018-10-18T19:12:02.652Z,100.00
2018-10-18T19:15:08.530Z,100.00
2018-10-18T19:18:12.773Z,100.00
2018-10-18T19:21:17.043Z,100.00
2018-10-18T19:24:21.393Z,100.00
2018-10-18T19:27:25.667Z,100.00
2018-10-18T19:30:30.528Z,100.00
2018-10-18T19:33:34.833Z,100.00
2018-10-18T19:36:39.126Z,100.00
2018-10-18T19:39:43.404Z,100.00
2018-10-18T19:42:47.701Z,100.00
2018-10-18T19:45:52.078Z,100.00
2018-10-18T19:48:56.468Z,100.00
2018-10-18T19:52:01.262Z,100.00
2018-10-18T19:55:06.826Z,100.00
2018-10-18T19:58:11.435Z,100.00
2018-10-18T20:01:15.792Z,100.00
2018-10-18T20:04:20.120Z,100.00
2018-10-18T20:07:24.452Z,100.00
2018-10-18T20:10:28.984Z,100.00
2018-10-18T20:13:33.694Z,100.00
2018-10-18T20:16:38.486Z,100.00
2018-10-18T20:19:43.151Z,100.00
2018-10-18T20:22:47.555Z,100.00
2018-10-18T20:25:52.396Z,100.00
2018-10-18T20:28:56.836Z,100.00
2018-10-18T20:32:01.328Z,100.00
2018-10-18T20:35:06.973Z,100.00
2018-10-18T20:38:11.307Z,100.00
2018-10-18T20:41:15.857Z,100.00
2018-10-18T20:44:20.204Z,100.00
2018-10-18T20:47:24.654Z,100.00
2018-10-18T20:50:28.818Z,100.00
2018-10-18T20:53:33.259Z,100.00
2018-10-18T20:56:37.749Z,100.00
2018-10-18T20:59:42.064Z,100.00
2018-10-18T21:02:46.408Z,100.00
2018-10-18T21:05:50.716Z,100.00
2018-10-18T21:08:55.029Z,100.00
2018-10-18T21:11:59.446Z,100.00
2018-10-18T21:15:03.817Z,100.00
2018-10-18T21:18:08.096Z,100.00
2018-10-18T21:21:12.434Z,100.00
2018-10-18T21:24:16.694Z,100.00
2018-10-18T21:30:59.825Z,100.00
2018-10-18T21:34:04.240Z,100.00
2018-10-18T21:37:08.513Z,100.00
2018-10-18T21:40:12.815Z,100.00
2018-10-18T21:43:17.218Z,100.00
2018-10-18T21:46:21.564Z,100.00
2018-10-18T21:49:26.363Z,100.00
2018-10-18T21:52:30.663Z,100.00
2018-10-18T21:55:34.969Z,100.00
2018-10-18T21:58:39.296Z,100.00
2018-10-18T22:01:43.737Z,100.00
2018-10-18T22:04:48.057Z,100.00
2018-10-18T22:07:52.564Z,100.00
2018-10-18T22:10:56.872Z,100.00
2018-10-18T22:14:01.174Z,100.00
2018-10-18T22:17:06.146Z,100.00
2018-10-18T22:20:10.898Z,100.00
2018-10-18T22:23:15.294Z,100.00
2018-10-18T22:26:19.603Z,100.00
2018-10-18T22:29:23.940Z,100.00
2018-10-18T22:32:28.332Z,100.00
2018-10-18T22:35:32.785Z,100.00
2018-10-18T22:38:37.085Z,100.00
2018-10-18T22:41:41.649Z,100.00
2018-10-18T22:44:46.076Z,100.00
2018-10-18T22:47:50.385Z,100.00
2018-10-18T22:50:54.717Z,100.00
2018-10-18T22:53:59.044Z,100.00
2018-10-18T22:57:03.411Z,100.00
2018-10-18T23:00:08.714Z,100.00
2018-10-18T23:03:13.104Z,100.00
2018-10-18T23:06:17.665Z,100.00
2018-10-18T23:09:22.118Z,100.00
2018-10-18T23:12:26.448Z,100.00
2018-10-18T23:15:30.765Z,100.00
2018-10-18T23:18:35.076Z,100.00
2018-10-18T23:21:39.377Z,100.00
2018-10-18T23:24:43.705Z,100.00
2018-10-18T23:27:48.008Z,100.00
2018-10-18T23:30:52.311Z,100.00
2018-10-18T23:33:56.636Z,100.00
2018-10-18T23:37:01.140Z,100.00
2018-10-18T23:40:06.140Z,100.00
2018-10-18T23:43:10.462Z,100.00
2018-10-18T23:46:14.741Z,100.00
2018-10-18T23:49:19.076Z,100.00
2018-10-18T23:52:23.376Z,100.00
2018-10-18T23:55:27.700Z,100.00
2018-10-18T23:58:32.012Z,100.00
